createdAt,value
2023-06-29T00:01:38.043Z,6.20
2023-06-29T00:04:06.184Z,9.27
2023-06-29T00:06:38.157Z,6.17
2023-06-29T00:09:06.441Z,4.53
2023-06-29T00:11:35.542Z,5.97
2023-06-29T00:14:03.666Z,6.40
2023-06-29T00:16:32.486Z,5.67
2023-06-29T00:19:02.256Z,6.90
2023-06-29T00:21:30.478Z,4.67
2023-06-29T00:23:58.928Z,6.23
2023-06-29T00:26:30.285Z,5.80
2023-06-29T00:28:58.667Z,7.33
2023-06-29T00:31:27.813Z,6.57
2023-06-29T00:33:56.096Z,5.93
2023-06-29T00:36:25.952Z,5.47
2023-06-29T00:38:55.130Z,5.93
2023-06-29T00:41:24.295Z,5.20
2023-06-29T00:43:53.139Z,7.53
2023-06-29T00:46:21.720Z,5.27
2023-06-29T00:48:49.801Z,4.57
2023-06-29T00:51:18.179Z,5.50
2023-06-29T00:53:47.674Z,5.33
2023-06-29T00:56:15.771Z,5.87
2023-06-29T00:58:43.780Z,6.83
2023-06-29T01:01:12.093Z,6.03
2023-06-29T01:03:42.035Z,5.40
2023-06-29T01:06:12.192Z,5.63
2023-06-29T01:08:45.027Z,5.00
2023-06-29T01:11:15.142Z,7.57
2023-06-29T01:13:43.416Z,5.23
2023-06-29T01:16:12.687Z,5.87
2023-06-29T01:18:44.370Z,6.77
2023-06-29T01:21:13.737Z,6.27
2023-06-29T01:23:41.805Z,6.27
2023-06-29T01:26:11.483Z,5.80
2023-06-29T01:28:40.305Z,4.63
2023-06-29T01:31:12.681Z,6.13
2023-06-29T01:33:40.829Z,6.97
2023-06-29T01:36:20.697Z,5.20
2023-06-29T01:38:54.170Z,4.80
2023-06-29T01:41:25.234Z,7.87
2023-06-29T01:43:53.925Z,4.53
2023-06-29T01:46:22.523Z,5.27
2023-06-29T01:48:51.237Z,6.83
2023-06-29T01:51:19.470Z,5.57
2023-06-29T01:53:47.834Z,5.70
2023-06-29T01:56:16.361Z,7.13
2023-06-29T01:58:45.797Z,7.10
2023-06-29T02:01:13.887Z,9.03
2023-06-29T02:03:42.072Z,5.83
2023-06-29T02:06:10.311Z,5.07
2023-06-29T02:08:39.983Z,5.63
2023-06-29T02:11:09.634Z,5.40
2023-06-29T02:13:37.715Z,5.20
2023-06-29T02:16:07.433Z,4.67
2023-06-29T02:18:35.509Z,4.43
2023-06-29T02:21:03.572Z,5.23
2023-06-29T02:23:31.640Z,4.77
2023-06-29T02:25:59.722Z,4.10
2023-06-29T02:28:27.704Z,4.37
2023-06-29T02:30:55.927Z,6.47
2023-06-29T02:33:25.567Z,7.20
2023-06-29T02:35:53.625Z,4.87
2023-06-29T02:38:21.841Z,4.93
2023-06-29T02:40:50.560Z,4.90
2023-06-29T02:43:18.605Z,4.70
2023-06-29T02:45:46.766Z,4.47
2023-06-29T02:48:15.610Z,5.47
2023-06-29T02:50:45.037Z,5.20
2023-06-29T02:53:15.764Z,5.47
2023-06-29T02:55:44.259Z,8.10
2023-06-29T02:58:12.731Z,5.07
2023-06-29T03:00:40.840Z,6.37
2023-06-29T03:03:08.999Z,5.10
2023-06-29T03:05:37.237Z,5.47
2023-06-29T03:08:07.060Z,6.53
2023-06-29T03:10:35.112Z,4.93
2023-06-29T03:13:03.214Z,6.00
2023-06-29T03:15:31.357Z,5.90
2023-06-29T03:17:59.403Z,6.97
2023-06-29T03:20:27.544Z,5.77
2023-06-29T03:22:55.520Z,4.27
2023-06-29T03:25:24.901Z,4.77
2023-06-29T03:27:52.848Z,4.03
2023-06-29T03:30:20.971Z,5.57
2023-06-29T03:32:49.011Z,4.97
2023-06-29T03:35:17.209Z,4.97
2023-06-29T03:37:45.293Z,6.10
2023-06-29T03:40:14.494Z,4.30
2023-06-29T03:42:43.900Z,7.43
2023-06-29T03:45:12.417Z,4.70
2023-06-29T03:47:40.578Z,5.67
2023-06-29T03:50:09.034Z,5.63
2023-06-29T03:52:37.084Z,6.27
2023-06-29T03:55:05.837Z,5.13
2023-06-29T03:57:33.885Z,4.37
2023-06-29T04:00:04.318Z,5.87
2023-06-29T04:02:41.242Z,5.13
2023-06-29T04:05:09.853Z,4.90
2023-06-29T04:07:37.996Z,5.87
2023-06-29T04:10:06.707Z,6.07
2023-06-29T04:12:34.883Z,5.47
2023-06-29T04:15:04.384Z,4.00
2023-06-29T04:17:32.476Z,5.30
2023-06-29T04:20:00.540Z,5.67
2023-06-29T04:22:28.809Z,5.73
2023-06-29T04:24:56.951Z,5.50
2023-06-29T04:27:24.998Z,6.13
2023-06-29T04:29:52.985Z,5.43
2023-06-29T04:32:22.397Z,6.87
2023-06-29T04:34:50.912Z,6.03
2023-06-29T04:37:18.967Z,4.83
2023-06-29T04:39:47.034Z,8.37
2023-06-29T04:42:18.078Z,5.57
2023-06-29T04:44:46.133Z,4.20
2023-06-29T04:47:14.258Z,5.07
2023-06-29T04:49:47.858Z,7.37
2023-06-29T04:52:19.708Z,5.40
2023-06-29T04:54:47.903Z,6.03
2023-06-29T04:57:15.953Z,6.60
2023-06-29T04:59:44.007Z,6.93
2023-06-29T05:02:12.164Z,3.77
2023-06-29T05:04:40.304Z,3.57
2023-06-29T05:07:09.876Z,6.70
2023-06-29T05:09:38.114Z,5.73
2023-06-29T05:12:07.080Z,4.47
2023-06-29T05:14:35.122Z,5.27
2023-06-29T05:17:03.217Z,4.93
2023-06-29T05:19:31.348Z,6.70
2023-06-29T05:21:59.310Z,6.60
2023-06-29T05:24:31.080Z,8.10
2023-06-29T05:26:59.214Z,6.17
2023-06-29T05:29:27.273Z,5.77
2023-06-29T05:31:55.390Z,6.00
2023-06-29T05:34:23.695Z,6.33
2023-06-29T05:36:51.678Z,5.33
2023-06-29T05:39:19.846Z,3.80
2023-06-29T05:41:49.682Z,6.23
2023-06-29T05:44:17.798Z,5.60
2023-06-29T05:46:45.834Z,5.80
2023-06-29T05:49:13.953Z,4.10
2023-06-29T05:51:43.325Z,4.37
2023-06-29T05:54:11.494Z,2.90
2023-06-29T05:56:39.514Z,4.73
2023-06-29T05:59:08.997Z,5.20
2023-06-29T06:01:37.336Z,4.67
2023-06-29T06:04:06.841Z,6.93
2023-06-29T06:06:35.059Z,4.53
2023-06-29T06:09:03.616Z,4.97
2023-06-29T06:11:31.685Z,4.93
2023-06-29T06:13:59.748Z,3.23
2023-06-29T06:16:29.167Z,6.40
2023-06-29T06:18:57.248Z,4.07
2023-06-29T06:21:26.041Z,4.93
2023-06-29T06:23:55.292Z,5.60
2023-06-29T06:26:23.410Z,4.20
2023-06-29T06:28:52.818Z,4.23
2023-06-29T06:31:32.826Z,3.83
2023-06-29T06:34:03.937Z,7.73
2023-06-29T06:36:32.535Z,3.93
2023-06-29T06:39:01.060Z,4.50
2023-06-29T06:41:29.215Z,3.40
2023-06-29T06:43:58.053Z,6.47
2023-06-29T06:46:26.106Z,5.50
2023-06-29T06:48:54.140Z,6.77
2023-06-29T06:51:23.843Z,5.37
2023-06-29T06:53:52.014Z,5.80
2023-06-29T06:56:20.055Z,5.23
2023-06-29T06:58:48.045Z,3.40
2023-06-29T07:01:16.291Z,4.43
2023-06-29T07:03:44.364Z,3.13
2023-06-29T07:06:12.355Z,3.37
2023-06-29T07:08:41.913Z,4.77
2023-06-29T07:11:10.038Z,3.20
2023-06-29T07:14:20.714Z,3.80
2023-06-29T07:16:49.385Z,5.67
2023-06-29T07:24:22.672Z,5.17
2023-06-29T07:26:51.049Z,6.70
2023-06-29T07:29:19.527Z,13.20
2023-06-29T07:31:48.952Z,4.53
2023-06-29T07:34:17.232Z,5.87
2023-06-29T07:36:45.484Z,4.97
2023-06-29T07:39:13.720Z,3.93
2023-06-29T07:41:44.286Z,5.10
2023-06-29T07:44:12.552Z,3.33
2023-06-29T07:46:41.015Z,5.47
2023-06-29T07:49:09.457Z,5.90
2023-06-29T07:51:37.717Z,4.73
2023-06-29T07:54:19.748Z,5.07
2023-06-29T07:59:23.404Z,4.20
2023-06-29T08:02:02.558Z,5.27
2023-06-29T08:07:02.058Z,6.30
2023-06-29T08:09:32.157Z,6.10
2023-06-29T08:12:01.766Z,4.77
2023-06-29T08:14:30.189Z,4.17
2023-06-29T08:16:58.278Z,3.67
2023-06-29T08:19:26.726Z,3.90
2023-06-29T08:21:56.753Z,5.20
2023-06-29T08:24:25.004Z,4.60
2023-06-29T08:26:53.177Z,5.47
2023-06-29T08:29:23.142Z,3.43
2023-06-29T08:31:52.032Z,4.67
2023-06-29T08:34:22.780Z,3.77
2023-06-29T08:36:52.584Z,5.67
2023-06-29T08:39:21.284Z,7.90
2023-06-29T08:41:49.788Z,5.63
2023-06-29T08:44:18.658Z,3.97
2023-06-29T08:46:48.738Z,4.37
2023-06-29T08:49:17.245Z,4.43
2023-06-29T08:51:46.346Z,4.67
2023-06-29T08:54:15.112Z,5.43
2023-06-29T08:56:43.650Z,4.90
2023-06-29T08:59:11.820Z,4.47
2023-06-29T09:01:40.490Z,5.30
2023-06-29T09:04:10.563Z,7.50
2023-06-29T09:06:39.169Z,6.17
2023-06-29T09:09:08.808Z,4.57
2023-06-29T09:11:37.679Z,5.97
2023-06-29T09:14:07.794Z,3.43
2023-06-29T09:16:37.343Z,4.87
2023-06-29T09:19:06.796Z,4.87
2023-06-29T09:21:36.518Z,4.70
2023-06-29T09:24:06.165Z,6.00
2023-06-29T09:26:34.336Z,5.30
2023-06-29T09:29:04.725Z,3.50
2023-06-29T09:31:34.662Z,5.90
2023-06-29T09:34:18.408Z,3.40
2023-06-29T09:36:48.360Z,8.73
2023-06-29T09:39:16.579Z,2.83
2023-06-29T09:41:49.042Z,4.87
2023-06-29T09:44:20.411Z,4.60
2023-06-29T09:49:06.957Z,5.63
2023-06-29T09:49:46.131Z,7.30
2023-06-29T09:52:16.564Z,2.90
2023-06-29T09:54:45.155Z,5.30
2023-06-29T09:57:13.645Z,4.73
2023-06-29T09:59:43.026Z,8.43
2023-06-29T10:02:11.218Z,4.97
2023-06-29T10:04:42.038Z,4.77
2023-06-29T10:07:11.397Z,3.23
2023-06-29T10:09:43.681Z,8.00
2023-06-29T10:12:13.301Z,4.43
2023-06-29T10:14:43.973Z,3.90
2023-06-29T10:17:18.222Z,4.03
2023-06-29T10:19:47.209Z,4.10
2023-06-29T10:22:17.834Z,5.17
2023-06-29T10:24:51.030Z,4.67
2023-06-29T10:27:19.616Z,5.53
2023-06-29T10:29:48.518Z,4.73
2023-06-29T10:32:35.357Z,4.07
2023-06-29T10:35:07.901Z,4.13
2023-06-29T10:37:37.675Z,3.70
2023-06-29T10:40:14.695Z,2.87
2023-06-29T10:42:56.979Z,3.30
2023-06-29T10:45:34.782Z,4.00
2023-06-29T10:48:07.040Z,3.13
2023-06-29T10:50:39.659Z,4.97
2023-06-29T10:53:10.320Z,5.20
2023-06-29T10:55:52.975Z,9.53
2023-06-29T10:59:17.757Z,4.23
2023-06-29T11:03:01.434Z,8.70
2023-06-29T11:05:30.084Z,3.23
2023-06-29T11:08:01.435Z,3.70
2023-06-29T11:10:31.672Z,4.50
2023-06-29T11:13:11.119Z,4.90
2023-06-29T11:15:40.185Z,7.17
2023-06-29T11:18:12.495Z,6.77
2023-06-29T11:20:46.785Z,4.17
2023-06-29T11:23:18.039Z,5.73
2023-06-29T11:25:46.264Z,3.90
2023-06-29T11:28:18.278Z,4.97
2023-06-29T11:30:49.013Z,6.47
2023-06-29T11:39:57.608Z,4.07
2023-06-29T11:42:53.655Z,4.37
2023-06-29T11:46:00.474Z,7.00
2023-06-29T11:48:31.266Z,7.90
2023-06-29T11:51:01.825Z,5.87
2023-06-29T11:53:31.035Z,5.47
2023-06-29T11:55:59.338Z,5.50
2023-06-29T11:58:34.087Z,7.77
2023-06-29T12:01:02.732Z,4.53
2023-06-29T12:03:32.448Z,5.17
2023-06-29T12:06:02.409Z,5.27
2023-06-29T12:08:39.462Z,6.53
2023-06-29T12:11:08.082Z,5.57
2023-06-29T12:13:36.786Z,6.70
2023-06-29T12:18:40.067Z,5.20
2023-06-29T12:21:08.453Z,6.13
2023-06-29T12:23:36.596Z,6.23
2023-06-29T12:26:05.168Z,9.30
2023-06-29T12:28:34.534Z,5.07
2023-06-29T12:31:04.655Z,6.40
2023-06-29T12:33:33.070Z,5.60
2023-06-29T12:36:04.617Z,5.77
2023-06-29T12:38:32.881Z,5.63
2023-06-29T12:41:04.021Z,5.37
2023-06-29T12:43:32.620Z,5.73
2023-06-29T12:46:01.051Z,5.77
2023-06-29T12:48:29.789Z,5.17
2023-06-29T12:51:01.677Z,5.87
2023-06-29T12:53:33.392Z,6.70
2023-06-29T12:56:02.611Z,6.00
2023-06-29T12:58:32.274Z,7.53
2023-06-29T13:01:02.659Z,9.93
2023-06-29T13:03:31.168Z,8.73
2023-06-29T13:05:59.683Z,6.77
2023-06-29T13:08:28.488Z,8.40
2023-06-29T13:10:59.402Z,5.80
2023-06-29T13:13:27.904Z,7.93
2023-06-29T13:15:56.719Z,5.70
2023-06-29T13:18:25.838Z,10.60
2023-06-29T13:20:54.145Z,6.73
2023-06-29T13:23:22.853Z,7.50
2023-06-29T13:25:51.513Z,4.70
2023-06-29T13:28:21.471Z,6.60
2023-06-29T13:30:49.903Z,8.60
2023-06-29T13:33:18.265Z,8.60
2023-06-29T13:35:46.806Z,9.03
2023-06-29T13:38:15.306Z,8.13
2023-06-29T13:40:52.304Z,8.27
2023-06-29T13:43:28.899Z,7.37
2023-06-29T13:45:58.636Z,9.37
2023-06-29T13:48:27.713Z,10.33
2023-06-29T13:50:59.280Z,10.00
2023-06-29T13:53:29.413Z,6.97
2023-06-29T13:55:57.848Z,6.23
2023-06-29T13:58:36.455Z,7.50
2023-06-29T14:01:06.514Z,7.10
2023-06-29T14:03:34.881Z,5.47
2023-06-29T14:06:03.202Z,7.37
2023-06-29T14:08:31.477Z,9.07
2023-06-29T14:10:59.525Z,8.00
2023-06-29T14:13:29.236Z,6.73
2023-06-29T14:15:57.428Z,6.07
2023-06-29T14:18:25.652Z,6.80
2023-06-29T14:20:54.115Z,7.50
2023-06-29T14:23:24.498Z,8.33
2023-06-29T14:25:52.721Z,7.97
2023-06-29T14:28:20.819Z,10.13
2023-06-29T14:30:50.325Z,8.73
2023-06-29T14:33:28.058Z,13.07
2023-06-29T14:35:57.267Z,13.50
2023-06-29T14:38:25.685Z,12.30
2023-06-29T14:40:53.860Z,10.03
2023-06-29T14:43:22.026Z,12.23
2023-06-29T14:45:54.169Z,12.17
2023-06-29T14:48:22.317Z,12.57
2023-06-29T14:53:29.338Z,12.00
2023-06-29T14:56:08.133Z,13.37
2023-06-29T14:58:36.266Z,15.10
2023-06-29T15:01:05.892Z,14.10
2023-06-29T15:03:34.237Z,14.90
2023-06-29T15:06:02.423Z,14.80
2023-06-29T15:08:30.546Z,13.30
2023-06-29T15:10:58.582Z,17.13
2023-06-29T15:13:26.585Z,17.27
2023-06-29T15:15:55.117Z,16.47
2023-06-29T15:18:24.560Z,19.90
2023-06-29T15:20:52.583Z,21.63
2023-06-29T15:23:20.649Z,21.53
2023-06-29T15:25:49.170Z,22.97
2023-06-29T15:28:17.376Z,15.47
2023-06-29T15:30:53.477Z,17.80
2023-06-29T15:33:22.179Z,18.13
2023-06-29T15:35:51.557Z,20.27
2023-06-29T15:38:19.603Z,17.83
2023-06-29T15:40:49.865Z,19.07
2023-06-29T15:43:17.902Z,17.43
2023-06-29T15:45:46.189Z,17.70
2023-06-29T15:48:15.791Z,21.20
2023-06-29T15:50:44.368Z,19.60
2023-06-29T15:53:14.065Z,21.93
2023-06-29T15:55:42.187Z,20.13
2023-06-29T15:58:10.230Z,19.60
2023-06-29T16:00:39.670Z,21.90
2023-06-29T16:03:07.884Z,19.47
2023-06-29T16:05:36.179Z,19.93
2023-06-29T16:08:04.576Z,21.80
2023-06-29T16:10:35.108Z,20.07
2023-06-29T16:13:03.139Z,24.20
2023-06-29T16:15:31.219Z,24.07
2023-06-29T16:17:59.493Z,22.00
2023-06-29T16:20:27.572Z,20.87
2023-06-29T16:22:55.653Z,21.37
2023-06-29T16:25:25.155Z,22.60
2023-06-29T16:27:54.914Z,21.43
2023-06-29T16:30:23.142Z,18.57
2023-06-29T16:32:51.249Z,20.00
2023-06-29T16:35:20.280Z,20.73
2023-06-29T16:37:48.323Z,21.63
2023-06-29T16:40:17.082Z,19.23
2023-06-29T16:42:45.069Z,22.70
2023-06-29T16:45:14.794Z,18.13
2023-06-29T16:47:42.856Z,20.83
2023-06-29T16:50:11.578Z,20.80
2023-06-29T16:52:39.631Z,19.90
2023-06-29T16:55:08.197Z,19.47
2023-06-29T16:57:36.253Z,19.17
2023-06-29T17:00:04.613Z,21.20
2023-06-29T17:02:34.536Z,20.77
2023-06-29T17:05:02.794Z,21.03
2023-06-29T17:07:30.980Z,20.17
2023-06-29T17:09:59.041Z,19.47
2023-06-29T17:12:27.401Z,20.03
2023-06-29T17:14:55.463Z,21.07
2023-06-29T17:17:23.601Z,18.70
2023-06-29T17:19:53.470Z,18.33
2023-06-29T17:22:21.675Z,19.80
2023-06-29T17:24:49.730Z,19.83
2023-06-29T17:27:17.851Z,19.90
2023-06-29T17:29:48.653Z,19.00
2023-06-29T17:32:16.707Z,21.83
2023-06-29T17:34:44.700Z,19.83
2023-06-29T17:37:14.137Z,21.27
2023-06-29T17:39:42.314Z,19.70
2023-06-29T17:42:20.795Z,17.03
2023-06-29T17:44:49.106Z,18.93
2023-06-29T17:47:17.542Z,19.63
2023-06-29T17:49:45.604Z,19.90
2023-06-29T17:52:15.022Z,20.97
2023-06-29T17:54:43.234Z,19.17
2023-06-29T17:57:11.484Z,18.47
2023-06-29T17:59:39.620Z,17.20
2023-06-29T18:02:07.773Z,20.00
2023-06-29T18:04:36.215Z,17.00
2023-06-29T18:07:04.774Z,20.03
2023-06-29T18:09:34.315Z,21.60
2023-06-29T18:12:02.418Z,19.53
2023-06-29T18:14:30.473Z,18.07
2023-06-29T18:16:58.695Z,18.77
2023-06-29T18:19:26.983Z,21.77
2023-06-29T18:21:55.129Z,20.90
2023-06-29T18:24:23.248Z,19.77
2023-06-29T18:26:52.901Z,17.40
2023-06-29T18:29:22.027Z,17.63
2023-06-29T18:31:50.301Z,18.57
2023-06-29T18:34:18.466Z,18.87
2023-06-29T18:36:46.644Z,18.87
2023-06-29T18:39:15.988Z,17.83
2023-06-29T18:41:44.342Z,20.30
2023-06-29T18:44:14.639Z,18.33
2023-06-29T18:47:06.872Z,20.30
2023-06-29T18:49:49.888Z,18.43
2023-06-29T18:52:20.165Z,20.67
2023-06-29T18:54:48.698Z,19.80
2023-06-29T18:57:17.039Z,21.83
2023-06-29T18:59:46.492Z,18.73
2023-06-29T19:02:14.703Z,20.07
2023-06-29T19:04:42.866Z,20.10
2023-06-29T19:07:12.634Z,23.43
2023-06-29T19:09:40.874Z,21.13
2023-06-29T19:12:09.665Z,21.60
2023-06-29T19:14:37.881Z,19.13
2023-06-29T19:17:07.882Z,19.53
2023-06-29T19:19:36.734Z,19.23
2023-06-29T19:22:05.298Z,26.30
2023-06-29T19:24:33.448Z,20.97
2023-06-29T19:27:03.755Z,20.10
2023-06-29T19:29:31.867Z,20.33
2023-06-29T19:32:00.046Z,20.63
2023-06-29T19:34:29.593Z,22.40
2023-06-29T19:37:02.095Z,25.03
2023-06-29T19:39:30.455Z,21.93
2023-06-29T19:41:58.946Z,21.83
2023-06-29T19:44:27.142Z,22.33
2023-06-29T19:46:55.321Z,24.30
2023-06-29T19:49:23.653Z,20.33
2023-06-29T19:51:58.306Z,20.83
2023-06-29T19:54:26.729Z,21.07
2023-06-29T19:56:54.893Z,21.67
2023-06-29T19:59:23.208Z,21.83
2023-06-29T20:01:51.257Z,21.93
2023-06-29T20:04:19.600Z,20.33
2023-06-29T20:06:48.332Z,22.00
2023-06-29T20:09:18.397Z,24.90
2023-06-29T20:11:46.540Z,21.67
2023-06-29T20:14:14.705Z,23.70
2023-06-29T20:16:42.881Z,22.93
2023-06-29T20:19:11.259Z,21.07
2023-06-29T20:21:39.980Z,20.20
2023-06-29T20:24:08.382Z,23.80
2023-06-29T20:26:38.424Z,23.33
2023-06-29T20:29:06.846Z,22.73
2023-06-29T20:31:35.073Z,24.03
2023-06-29T20:34:03.319Z,22.97
2023-06-29T20:36:31.633Z,24.63
2023-06-29T20:39:00.029Z,24.03
2023-06-29T20:41:28.277Z,22.80
2023-06-29T20:43:57.772Z,25.23
2023-06-29T20:46:26.090Z,23.43
2023-06-29T20:48:54.139Z,28.13
2023-06-29T20:51:22.358Z,22.13
2023-06-29T20:53:51.007Z,23.73
2023-06-29T20:56:19.534Z,23.43
2023-06-29T20:58:47.805Z,23.63
2023-06-29T21:01:17.281Z,25.80
2023-06-29T21:03:45.943Z,26.47
2023-06-29T21:06:14.182Z,26.53
2023-06-29T21:08:42.326Z,28.07
2023-06-29T21:11:10.709Z,28.50
2023-06-29T21:13:39.131Z,32.93
2023-06-29T21:16:08.004Z,30.70
2023-06-29T21:18:38.272Z,28.20
2023-06-29T21:21:07.171Z,29.80
2023-06-29T21:23:35.469Z,31.97
2023-06-29T21:26:03.911Z,31.50
2023-06-29T21:28:32.827Z,31.67
2023-06-29T21:31:02.034Z,37.13
2023-06-29T21:33:30.446Z,34.53
2023-06-29T21:36:00.624Z,33.27
2023-06-29T21:38:31.948Z,31.07
2023-06-29T21:41:00.719Z,31.73
2023-06-29T21:43:28.715Z,32.10
2023-06-29T21:45:56.753Z,31.20
2023-06-29T21:48:24.751Z,31.00
2023-06-29T21:50:52.950Z,31.37
2023-06-29T21:53:22.324Z,30.70
2023-06-29T21:55:50.492Z,34.83
2023-06-29T21:58:18.486Z,31.37
2023-06-29T22:00:47.149Z,31.67
2023-06-29T22:03:15.410Z,31.87
2023-06-29T22:05:43.574Z,31.10
2023-06-29T22:08:11.985Z,31.97
2023-06-29T22:10:41.653Z,29.60
2023-06-29T22:13:09.679Z,31.50
2023-06-29T22:15:43.989Z,32.00
2023-06-29T22:18:12.732Z,29.57
2023-06-29T22:20:41.999Z,32.20
2023-06-29T22:23:09.972Z,33.70
2023-06-29T22:25:37.975Z,31.23
2023-06-29T22:28:08.043Z,32.87
2023-06-29T22:30:36.166Z,34.37
2023-06-29T22:33:04.488Z,32.40
2023-06-29T22:35:32.589Z,28.87
2023-06-29T22:38:00.782Z,27.10
2023-06-29T22:40:28.884Z,31.33
2023-06-29T22:42:56.849Z,28.70
2023-06-29T22:45:26.777Z,26.87
2023-06-29T22:47:54.931Z,28.17
2023-06-29T22:50:25.950Z,27.97
2023-06-29T22:52:54.699Z,27.73
2023-06-29T22:55:22.887Z,29.17
2023-06-29T22:57:50.985Z,32.30
2023-06-29T23:00:19.486Z,27.63
2023-06-29T23:02:49.138Z,31.13
2023-06-29T23:05:20.370Z,28.37
2023-06-29T23:07:48.665Z,29.13
2023-06-29T23:10:17.436Z,28.77
2023-06-29T23:12:46.671Z,31.47
2023-06-29T23:15:14.988Z,33.57
2023-06-29T23:17:43.073Z,31.20
2023-06-29T23:20:14.202Z,31.07
2023-06-29T23:22:45.106Z,31.50
2023-06-29T23:25:13.381Z,31.40
2023-06-29T23:27:44.194Z,33.30
2023-06-29T23:30:13.506Z,31.93
2023-06-29T23:32:46.132Z,31.60
2023-06-29T23:35:16.247Z,33.40
2023-06-29T23:37:44.299Z,32.57
2023-06-29T23:40:13.461Z,29.33
2023-06-29T23:42:43.797Z,31.70
2023-06-29T23:45:12.684Z,29.03
2023-06-29T23:47:40.865Z,28.23
2023-06-29T23:50:11.716Z,30.50
2023-06-29T23:52:41.693Z,25.23
2023-06-29T23:55:12.630Z,26.40
2023-06-29T23:57:41.842Z,26.87
